Etusivu
METAR-TAF:

METAR-TAF

Lentoasemat :

Dryden, Ontario, Kanada

Leveyspiiri: 49-50N, Pituuspiiri: 092-45W, korkeus merenpinnasta: 413 m

Tämänhetkinen sää

Tämä raportti tehtiin 53 minuuttia sitten, kello 07.00 UTC
Tuuli 3 kn etelästä/kaakosta
Lämpötila -7°C
Kosteus 79%
Ilmanpaine 1020 hPa
Näkyvyys: 14.5 km
selkeää

METAR: CYHD 050700Z AUTO 16003KT 9SM CLR M07/M10 A3012 RMK SLP230

Aika: 02:53 (07:53 UTC)

Sääennuste

Tämä raportti tehtiin 15 minuuttia sitten, kello 07.38 UTC
Ennuste voimassa 05. päivästä klo 08 UTC - 05. päivään klo 20 UTC
Tuuli 3 kn eri suunnista
Näkyvyys: 10 km
selkeää
From 05. päivästä klo 1300 UTC
Tuuli 5 kn etelästä/kaakosta
Näkyvyys: 10 km
Hajanaisia pilviä 10000 ft:n korkeudessa
From 05. päivästä klo 1800 UTC
Tuuli 10 kn etelästä
Näkyvyys: 10 km
Hajonneita pilviä 4000 ft:n korkeudessa

TAF: CYHD 050738Z 0508/0520 VRB03KT P6SM SKC FM051300 16005KT P6SM SCT100 FM051800 18010KT P6SM BKN040 RMK FCST BASED ON AUTO OBS. NXT FCST BY 051400Z

Säähavainnot ja -ennusteet yli 4000 lentoasemalta (METAR- ja TAF-raportit).

Käytössä olevat sääasemat on merkitty karttaan keltaisilla ja punaisilla pisteillä.

Aseta hiiri pisteen päälle nähdäksesi sääaseman nimen.

Klikkaa sitten nähdäksesi säähavainnot ja -ennusteet.

Kartan vaihtaminen: klikkaa mustalla rastilla varustettuja vihreitä pisteitä, niin voit zoomata sisään; viivalla varustettua vihreää pistettä, niin voit zoomata ulos tai vihreitä nuolia, niin pääset viereisille kartoille.


METAR-TAF: